Accueil
METAR-TAF:

METAR-TAF

Aéroports :

Téhéran, Iran

Aéroport international Mehrabad

latitude: 35-41N, longitude: 051-21E, altitude: 1204 m

Observation

Le bulletin a été fait il y a 12 minutes, à 22:30 UTC
Vent 4 kt de nord
Température 28°C
Humidité 27%
Pression 1015 hPa
Visibilité 10 km ou plus
pas de nuages en-dessous de 1500 mètres et pas de cumulonimbus.

METAR: OIII 272230Z 01004KT CAVOK 28/07 Q1015 A2997

Heure: 03:12 (22:42 UTC)

Prévision

Le bulletin a été fait il y a 11 heures et 42 minutes, à 11:00 UTC
Prévision valable du 27 à 12 UTC au 28 à 18 UTC
Vent 10 kt de sud-ouest
Visibilité 10 km ou plus
pas de nuages en-dessous de 1500 mètres et pas de cumulonimbus.
Evoluant progressivement
du 27 à 17 UTC au 27 à 19 UTC
Vent 8 kt de nord/nord-ouest
Evoluant progressivement
du 28 à 05 UTC au 08 à 07 UTC
Vent 10 kt de sud

TAF: OIII 271100Z 2712/2818 23005MPS CAVOK BECMG 2717/2719 33004MPS BECMG 2805/0807 19005MPS

Observations et prévisions météorologiques de plus de 4000 aéroports (messages METAR et TAF).

Les stations disponibles sont représentées par des disques jaunes et rouges sur la carte.

Passer la souris dessus pour voir le nom de la station.

Cliquer dessus pour voir les observations et prévisions météorologiques.

Pour changer de carte: cliquez sur les boutons verts avec une croix noire pour zoomer, sur le bouton vert avec un tiret pour effectuer un zoom arrière, ou sur les flèches vertes pour les cartes adjacentes.


METAR-TAF: